Extreme high temperature From: 16-07-2018 05:00 Until: 19:00 warning for: Extreme high temperature Level: Yellow info button
suomi:
Hellevaroitus: Lähivuorokauden aikana on odotettavissa tukalaa hellettä.

svenska:
Varning för värmebölja: Under det närmaste dygnet är den svåra hettan att vänta.

english:
Heat wave warning: Warm weather is expected during the coming 24 hours. 


Thunder radar more information blitzortung!


Löydät sääaseman tiedot myös:

European Weather Network

Finland Weather Exchange

Weather Underground

AWEKAS



Weather Underground säähistoriasivu

Päivittäin yhteenveto Tou 30, 2017 Yksiköt:  Metriset    Englantilaiset   Molemmat
« Edellinen Päivä
Seuraava Päivä »
Päivittäin Viikoittain Kuukausittain Vuosittain Mukautettu
  Korkea: Matala: Keskiarvo:
Lämpötila: -17.8 °C -18.2 °C -13.9 °C
Kastepiste: -17.8 °C -18.8 °C -16.2 °C
Kosteus: Humidity % 49 % 76 %
Tuulen nopeus: 0 km/h 0 km/h 0.6 km/h
Tuulenpuuska: 0 km/h - -
Tuuli:- - SSW
Ilmanpaine: 0 hPa 33890.5 hPa -
Sade: 25.4 mm    
Historical Graphs
 
 
Taulukkotiedot Tou 30, 2017
Aika Lämpötila Kastepiste Ilmanpaine Tuuli Tuulen nopeus Tuulenpuuska Kosteus Sademäärä (tunneittain)
-17.8 °C -17.8 °C 0 hPa Calm     Humidity % 0 mm
00:00 -16.3 °C -17.6 °C 34222.3 hPa Calm     85 % 0 mm
00:15 -16.5 °C -17.7 °C 34235.8 hPa Calm     86 % 0 mm
00:30 -16.7 °C -17.8 °C 34235.8 hPa Calm     87 % 0 mm
00:45 -16.8 °C -17.8 °C 34235.8 hPa Calm     88 % 0 mm
01:00 -17.1 °C -18 °C 34235.8 hPa Calm     88 % 0 mm
01:15 -17.2 °C -18.1 °C 34235.8 hPa Calm     89 % 0 mm
01:30 -17.3 °C -18.2 °C 34246 hPa Calm     90 % 0 mm
01:45 -17.4 °C -18.3 °C 34246 hPa Calm     90 % 0 mm
02:00 -17.6 °C -18.3 °C 34246 hPa Calm     91 % 0 mm
02:15 -17.6 °C -18.3 °C 34246 hPa Calm     91 % 0 mm
02:30 -17.8 °C -18.5 °C 34246 hPa Calm     91 % 0 mm
02:45 -17.9 °C -18.7 °C 34246 hPa Calm     91 % 0 mm
03:00 -18.1 °C -18.7 °C 34246 hPa Calm     92 % 0 mm
03:15 -18.1 °C -18.6 °C 34246 hPa Calm     93 % 0 mm
03:30 -18 °C -18.6 °C 34246 hPa Calm     93 % 0 mm
03:45 -18.2 °C -18.8 °C 34246 hPa Calm     92 % 0 mm
04:00 -18 °C -18.4 °C 34246 hPa Calm     94 % 0 mm
04:15 -17.9 °C -18.4 °C 34235.8 hPa Calm     93 % 0 mm
04:30 -17.8 °C -18.3 °C 34235.8 hPa Calm     94 % 0 mm
04:45 -17.6 °C -18 °C 34235.8 hPa Calm     94 % 0 mm
05:00 -17.2 °C -17.7 °C 34235.8 hPa Calm     94 % 0 mm
05:15 -16.9 °C -17.4 °C 34235.8 hPa Calm     94 % 0 mm
05:30 -16.7 °C -17.2 °C 34235.8 hPa Calm   2.6 km/h 94 % 0 mm
05:45 -16.5 °C -17.1 °C 34222.3 hPa Calm     93 % 0 mm
06:00 -16.3 °C -17.1 °C 34222.3 hPa Calm   5.1 km/h 91 % 0 mm
06:15 -16.1 °C -17 °C 34222.3 hPa Calm     89 % 0 mm
06:30 -15.9 °C -17 °C 34222.3 hPa Calm   5.1 km/h 87 % 0 mm
06:45 -15.7 °C -17 °C 34222.3 hPa Calm     85 % 0 mm
07:00 -15.5 °C -16.8 °C 34222.3 hPa Calm     85 % 0 mm
07:15 -15.3 °C -16.7 °C 34212.1 hPa Calm   2.6 km/h 83 % 0 mm
07:30 -15.1 °C -16.6 °C 34212.1 hPa Calm     83 % 0 mm
07:45 -14.7 °C -16.4 °C 34212.1 hPa Calm   2.6 km/h 81 % 0 mm
08:00 -14.5 °C -16.3 °C 34212.1 hPa Calm     79 % 0 mm
08:15 -14.2 °C -16.3 °C 34212.1 hPa Calm   5.1 km/h 77 % 0 mm
08:30 -14 °C -16.1 °C 34212.1 hPa Calm     77 % 0 mm
08:45 -13.7 °C -16.2 °C 34212.1 hPa Calm   7.7 km/h 73 % 0 mm
09:00 -13.2 °C -16.6 °C 34198.6 hPa South 5.1 km/h 15.6 km/h 66 % 0 mm
09:15 -12.9 °C -16.6 °C 34198.6 hPa SSE 5.1 km/h 18.2 km/h 64 % 0 mm
09:30 -12.8 °C -16.5 °C 34198.6 hPa SSW 5.1 km/h 15.6 km/h 63 % 0 mm
09:45 -12.4 °C -16.9 °C 34198.6 hPa SSW 7.7 km/h 15.6 km/h 57 % 0 mm
10:00 -12.1 °C -16.6 °C 34188.4 hPa SSW 7.7 km/h 20.8 km/h 57 % 0 mm
10:15 -11.7 °C -16.9 °C 34188.4 hPa South 12.9 km/h 25.9 km/h 52 % 0 mm
10:30 -11.7 °C -17.1 °C 34188.4 hPa South 10.3 km/h 25.9 km/h 51 % 0 mm
10:45 -11.8 °C -16.9 °C 34188.4 hPa SSW 7.7 km/h 25.9 km/h 53 % 0 mm
11:00 -11.7 °C -16.7 °C 34178.3 hPa Calm     54 % 0 mm
11:15 -11.5 °C -16.2 °C 34178.3 hPa Calm     56 % 0 mm
11:30 -11.2 °C -16.6 °C 34178.3 hPa Calm     51 % 0 mm
11:45 -10.9 °C -16.6 °C 34164.7 hPa Calm     50 % 0 mm
12:00 -10.9 °C -16.4 °C 34164.7 hPa Calm     51 % 0 mm
12:15 -10.7 °C -16.5 °C 34164.7 hPa Calm     49 % 0 mm
12:30 -10.6 °C -16.2 °C 34164.7 hPa Calm     50 % 0 mm
12:45 -10.7 °C -16.1 °C 34164.7 hPa Calm     52 % 0 mm
13:00 -10.7 °C -15.8 °C 34164.7 hPa Calm     53 % 0 mm
13:15 -10.9 °C -16.1 °C 34154.6 hPa Calm     53 % 0 mm
13:30 -11.1 °C -16 °C 34154.6 hPa Calm     55 % 0 mm
13:45 -11.1 °C -15.9 °C 34144.4 hPa Calm     55 % 0 mm
14:00 -11.1 °C -15.9 °C 34144.4 hPa Calm     55 % 0 mm
14:15 -10.9 °C -15.7 °C 34130.9 hPa Calm     56 % 0 mm
14:30 -10.9 °C -16.1 °C 34120.7 hPa Calm     53 % 0 mm
14:45 -10.9 °C -15.7 °C 34120.7 hPa Calm     56 % 0 mm
15:00 -10.9 °C -15.7 °C 34120.7 hPa Calm     56 % 0 mm
15:15 -10.9 °C -15.4 °C 34107.2 hPa Calm     57 % 0 mm
15:30 -11.2 °C -15.4 °C 34097 hPa Calm     59 % 0 mm
15:45 -10.6 °C -16.4 °C 34097 hPa Calm     49 % 0 mm
16:15 -11.1 °C -16.8 °C 34097 hPa Calm     49 % 0 mm
16:30 -11.4 °C -16.7 °C 34086.9 hPa Calm     52 % 0 mm
16:45 -11.6 °C -16.1 °C 34086.9 hPa Calm     57 % 0 mm
17:00 -12.1 °C -14.9 °C 34086.9 hPa Calm     71 % 7.62 mm
17:15 -12.6 °C -14.7 °C 34073.3 hPa Calm     78 % 7.62 mm
17:30 -12.8 °C -14.5 °C 34073.3 hPa Calm     81 % 12.7 mm
17:45 -12.9 °C -14.9 °C 34063.2 hPa Calm     78 % 12.7 mm
18:00 -12.8 °C -14.7 °C 34063.2 hPa Calm     79 % 7.62 mm
18:15 -12.9 °C -14.8 °C 34049.6 hPa Calm     80 % 7.62 mm
18:30 -13.1 °C -14.5 °C 34039.5 hPa Calm     84 % 7.62 mm
18:45 -13.2 °C -14.4 °C 34039.5 hPa Calm     86 % 7.62 mm
19:00 -13.2 °C -14.3 °C 34039.5 hPa Calm     87 % 7.62 mm
19:15 -13.2 °C -14.3 °C 34029.3 hPa Calm     87 % 7.62 mm
19:45 -13.4 °C -14.3 °C 34015.8 hPa Calm     90 % 7.62 mm
20:00 -13.4 °C -14.2 °C 34005.6 hPa Calm     91 % 7.62 mm
20:15 -13.4 °C -14.1 °C 34005.6 hPa Calm     92 % 7.62 mm
20:30 -13.4 °C -14.1 °C 33992.1 hPa Calm     92 % 0 mm
20:45 -13.4 °C -14.1 °C 33981.9 hPa Calm     92 % 0 mm
21:00 -13.3 °C -14 °C 33981.9 hPa Calm     92 % 0 mm
21:15 -13.3 °C -14 °C 33971.7 hPa Calm     92 % 0 mm
21:30 -13.3 °C -14 °C 33958.2 hPa Calm     92 % 0 mm
21:45 -13.4 °C -14.1 °C 33958.2 hPa Calm     92 % 0 mm
22:00 -13.4 °C -14.1 °C 33948 hPa Calm     92 % 0 mm
22:15 -13.4 °C -14.1 °C 33948 hPa Calm     92 % 0 mm
22:30 -13.5 °C -14.2 °C 33937.9 hPa Calm     92 % 0 mm
22:45 -13.5 °C -14.1 °C 33924.3 hPa Calm     93 % 0 mm
23:00 -13.5 °C -14 °C 33924.3 hPa Calm     94 % 0 mm
23:15 -13.6 °C -14.1 °C 33914.2 hPa Calm     94 % 7.62 mm
23:30 -13.6 °C -14.1 °C 33900.6 hPa Calm     94 % 7.62 mm
23:45 -13.6 °C -14 °C 33890.5 hPa Calm     95 % 7.62 mm
Esan sääasema
Terveisin Weather Underground - 2.75 mb

Alkuperäinen skripti  Jim McMurry - jmcmurry@mwt.net Sovitettu myös templatelle  Wim van der Kuil - Leuven-Template.eu

Laitteet joita käytämme:

Sääasema
Davis VP2

Sääasemaohjelma
Cumulus

Sääaseman tietokone
Asus EeePC

Palveluntarjoaja
Suncomet

Davis VP2

Cumulus

Asus EeePC

Suncomet